sensor_id;sensor_type;location;lat;lon;timestamp;P1;durP1;ratioP1;P2;durP2;ratioP2
65567;SDS011;52211;50.154;8.682;2023-07-29T00:01:21;3.77;;;3.20;;
65567;SDS011;52211;50.154;8.682;2023-07-29T00:03:53;3.83;;;3.30;;
65567;SDS011;52211;50.154;8.682;2023-07-29T00:06:25;4.33;;;3.80;;
65567;SDS011;52211;50.154;8.682;2023-07-29T00:08:59;3.80;;;3.43;;
65567;SDS011;52211;50.154;8.682;2023-07-29T00:11:29;4.77;;;4.37;;
65567;SDS011;52211;50.154;8.682;2023-07-29T00:14:00;3.83;;;3.53;;
65567;SDS011;52211;50.154;8.682;2023-07-29T00:16:27;4.57;;;4.27;;
65567;SDS011;52211;50.154;8.682;2023-07-29T00:18:54;4.30;;;3.90;;
65567;SDS011;52211;50.154;8.682;2023-07-29T00:21:21;4.10;;;3.80;;
65567;SDS011;52211;50.154;8.682;2023-07-29T00:23:51;4.30;;;3.97;;
65567;SDS011;52211;50.154;8.682;2023-07-29T00:26:17;4.03;;;3.43;;
65567;SDS011;52211;50.154;8.682;2023-07-29T00:28:48;5.87;;;4.10;;
65567;SDS011;52211;50.154;8.682;2023-07-29T00:31:23;5.10;;;3.27;;
65567;SDS011;52211;50.154;8.682;2023-07-29T00:33:52;4.10;;;3.70;;
65567;SDS011;52211;50.154;8.682;2023-07-29T00:36:21;3.80;;;3.50;;
65567;SDS011;52211;50.154;8.682;2023-07-29T00:38:49;3.73;;;3.43;;
65567;SDS011;52211;50.154;8.682;2023-07-29T00:41:16;3.77;;;3.47;;
65567;SDS011;52211;50.154;8.682;2023-07-29T00:43:52;4.30;;;3.97;;
65567;SDS011;52211;50.154;8.682;2023-07-29T00:46:21;3.40;;;3.20;;
65567;SDS011;52211;50.154;8.682;2023-07-29T00:48:51;3.60;;;3.30;;
65567;SDS011;52211;50.154;8.682;2023-07-29T00:51:18;5.47;;;3.50;;
65567;SDS011;52211;50.154;8.682;2023-07-29T00:53:50;4.03;;;3.73;;
65567;SDS011;52211;50.154;8.682;2023-07-29T00:56:20;3.93;;;3.33;;
65567;SDS011;52211;50.154;8.682;2023-07-29T00:58:50;3.60;;;3.30;;
65567;SDS011;52211;50.154;8.682;2023-07-29T01:01:23;4.13;;;3.83;;
65567;SDS011;52211;50.154;8.682;2023-07-29T01:03:52;3.50;;;3.30;;
65567;SDS011;52211;50.154;8.682;2023-07-29T01:09:25;3.57;;;3.33;;
65567;SDS011;52211;50.154;8.682;2023-07-29T01:12:20;3.30;;;3.10;;
65567;SDS011;52211;50.154;8.682;2023-07-29T01:15:03;4.23;;;3.83;;
65567;SDS011;52211;50.154;8.682;2023-07-29T01:20:48;3.73;;;3.40;;
65567;SDS011;52211;50.154;8.682;2023-07-29T01:23:26;4.33;;;3.93;;
65567;SDS011;52211;50.154;8.682;2023-07-29T01:25:58;4.50;;;4.10;;
65567;SDS011;52211;50.154;8.682;2023-07-29T01:28:30;4.80;;;4.30;;
65567;SDS011;52211;50.154;8.682;2023-07-29T01:31:06;4.17;;;3.87;;
65567;SDS011;52211;50.154;8.682;2023-07-29T01:33:48;4.50;;;4.10;;
65567;SDS011;52211;50.154;8.682;2023-07-29T01:36:32;4.53;;;4.13;;
65567;SDS011;52211;50.154;8.682;2023-07-29T01:39:10;4.17;;;3.87;;
65567;SDS011;52211;50.154;8.682;2023-07-29T01:41:42;5.00;;;4.50;;
65567;SDS011;52211;50.154;8.682;2023-07-29T01:44:13;4.60;;;4.23;;
65567;SDS011;52211;50.154;8.682;2023-07-29T01:46:44;4.63;;;4.23;;
65567;SDS011;52211;50.154;8.682;2023-07-29T01:49:15;4.63;;;4.27;;
65567;SDS011;52211;50.154;8.682;2023-07-29T01:51:42;4.40;;;4.00;;
65567;SDS011;52211;50.154;8.682;2023-07-29T01:54:11;7.37;;;4.23;;
65567;SDS011;52211;50.154;8.682;2023-07-29T01:56:38;3.83;;;3.57;;
65567;SDS011;52211;50.154;8.682;2023-07-29T01:59:08;3.17;;;2.90;;
65567;SDS011;52211;50.154;8.682;2023-07-29T02:01:35;4.23;;;3.83;;
65567;SDS011;52211;50.154;8.682;2023-07-29T02:04:04;3.37;;;3.07;;
65567;SDS011;52211;50.154;8.682;2023-07-29T02:06:31;2.83;;;2.63;;
65567;SDS011;52211;50.154;8.682;2023-07-29T02:09:04;3.43;;;3.13;;
65567;SDS011;52211;50.154;8.682;2023-07-29T02:11:34;2.80;;;2.50;;
65567;SDS011;52211;50.154;8.682;2023-07-29T02:14:01;3.37;;;3.10;;
65567;SDS011;52211;50.154;8.682;2023-07-29T02:16:32;2.97;;;2.73;;
65567;SDS011;52211;50.154;8.682;2023-07-29T02:19:01;3.10;;;2.70;;
65567;SDS011;52211;50.154;8.682;2023-07-29T02:21:29;10.83;;;3.60;;
65567;SDS011;52211;50.154;8.682;2023-07-29T02:23:56;3.30;;;3.00;;
65567;SDS011;52211;50.154;8.682;2023-07-29T02:26:23;3.10;;;2.80;;
65567;SDS011;52211;50.154;8.682;2023-07-29T02:28:53;3.17;;;2.93;;
65567;SDS011;52211;50.154;8.682;2023-07-29T02:31:22;3.33;;;3.03;;
65567;SDS011;52211;50.154;8.682;2023-07-29T02:33:51;2.90;;;2.70;;
65567;SDS011;52211;50.154;8.682;2023-07-29T02:36:20;2.80;;;2.60;;
65567;SDS011;52211;50.154;8.682;2023-07-29T02:38:50;3.83;;;3.00;;
65567;SDS011;52211;50.154;8.682;2023-07-29T02:41:17;3.00;;;2.60;;
65567;SDS011;52211;50.154;8.682;2023-07-29T02:43:47;2.83;;;2.63;;
65567;SDS011;52211;50.154;8.682;2023-07-29T02:46:17;2.63;;;2.43;;
65567;SDS011;52211;50.154;8.682;2023-07-29T02:48:46;2.73;;;2.53;;
65567;SDS011;52211;50.154;8.682;2023-07-29T02:51:22;2.43;;;2.23;;
65567;SDS011;52211;50.154;8.682;2023-07-29T02:53:51;2.70;;;2.40;;
65567;SDS011;52211;50.154;8.682;2023-07-29T02:56:23;2.70;;;2.50;;
65567;SDS011;52211;50.154;8.682;2023-07-29T02:58:50;3.43;;;2.43;;
65567;SDS011;52211;50.154;8.682;2023-07-29T03:01:22;2.70;;;2.50;;
65567;SDS011;52211;50.154;8.682;2023-07-29T03:03:51;3.10;;;2.80;;
65567;SDS011;52211;50.154;8.682;2023-07-29T03:06:18;3.07;;;2.57;;
65567;SDS011;52211;50.154;8.682;2023-07-29T03:08:45;5.10;;;3.20;;
65567;SDS011;52211;50.154;8.682;2023-07-29T03:11:17;2.67;;;2.47;;
65567;SDS011;52211;50.154;8.682;2023-07-29T03:13:46;2.80;;;2.60;;
65567;SDS011;52211;50.154;8.682;2023-07-29T03:16:16;2.50;;;2.30;;
65567;SDS011;52211;50.154;8.682;2023-07-29T03:18:51;2.77;;;2.57;;
65567;SDS011;52211;50.154;8.682;2023-07-29T03:21:21;2.90;;;2.70;;
65567;SDS011;52211;50.154;8.682;2023-07-29T03:23:50;2.40;;;2.20;;
65567;SDS011;52211;50.154;8.682;2023-07-29T03:26:17;2.07;;;1.97;;
65567;SDS011;52211;50.154;8.682;2023-07-29T03:28:46;2.10;;;2.00;;
65567;SDS011;52211;50.154;8.682;2023-07-29T03:31:15;2.53;;;2.33;;
65567;SDS011;52211;50.154;8.682;2023-07-29T03:33:42;2.23;;;2.13;;
65567;SDS011;52211;50.154;8.682;2023-07-29T03:36:11;1.83;;;1.73;;
65567;SDS011;52211;50.154;8.682;2023-07-29T03:38:41;2.67;;;2.17;;
65567;SDS011;52211;50.154;8.682;2023-07-29T03:41:11;1.90;;;1.80;;
65567;SDS011;52211;50.154;8.682;2023-07-29T03:43:43;2.20;;;2.10;;
65567;SDS011;52211;50.154;8.682;2023-07-29T03:46:12;2.10;;;2.00;;
65567;SDS011;52211;50.154;8.682;2023-07-29T03:48:46;2.63;;;2.13;;
65567;SDS011;52211;50.154;8.682;2023-07-29T03:51:18;2.40;;;2.20;;
65567;SDS011;52211;50.154;8.682;2023-07-29T03:53:47;2.00;;;1.90;;
65567;SDS011;52211;50.154;8.682;2023-07-29T03:56:14;2.67;;;2.47;;
65567;SDS011;52211;50.154;8.682;2023-07-29T03:58:41;1.93;;;1.83;;
65567;SDS011;52211;50.154;8.682;2023-07-29T04:01:12;2.57;;;2.37;;
65567;SDS011;52211;50.154;8.682;2023-07-29T04:03:40;2.27;;;2.07;;
65567;SDS011;52211;50.154;8.682;2023-07-29T04:06:09;2.60;;;2.03;;
65567;SDS011;52211;50.154;8.682;2023-07-29T04:08:36;2.40;;;2.20;;
65567;SDS011;52211;50.154;8.682;2023-07-29T04:11:07;2.03;;;1.93;;
65567;SDS011;52211;50.154;8.682;2023-07-29T04:13:38;2.00;;;1.90;;
65567;SDS011;52211;50.154;8.682;2023-07-29T04:16:05;3.00;;;2.37;;
65567;SDS011;52211;50.154;8.682;2023-07-29T04:18:33;2.50;;;2.30;;
65567;SDS011;52211;50.154;8.682;2023-07-29T04:21:00;3.60;;;2.90;;
65567;SDS011;52211;50.154;8.682;2023-07-29T04:23:27;3.10;;;2.80;;
65567;SDS011;52211;50.154;8.682;2023-07-29T04:25:54;4.70;;;3.40;;
65567;SDS011;52211;50.154;8.682;2023-07-29T04:28:26;3.00;;;2.80;;
65567;SDS011;52211;50.154;8.682;2023-07-29T04:30:57;3.30;;;3.10;;
65567;SDS011;52211;50.154;8.682;2023-07-29T04:33:26;3.37;;;3.17;;
65567;SDS011;52211;50.154;8.682;2023-07-29T04:36:02;3.93;;;3.47;;
65567;SDS011;52211;50.154;8.682;2023-07-29T04:38:36;5.63;;;3.27;;
65567;SDS011;52211;50.154;8.682;2023-07-29T04:41:06;3.50;;;3.30;;
65567;SDS011;52211;50.154;8.682;2023-07-29T04:43:37;3.70;;;3.40;;
65567;SDS011;52211;50.154;8.682;2023-07-29T04:46:07;3.70;;;3.50;;
65567;SDS011;52211;50.154;8.682;2023-07-29T04:48:36;3.70;;;3.40;;
65567;SDS011;52211;50.154;8.682;2023-07-29T04:51:03;3.47;;;3.27;;
65567;SDS011;52211;50.154;8.682;2023-07-29T04:53:30;4.20;;;3.80;;
65567;SDS011;52211;50.154;8.682;2023-07-29T04:55:57;4.03;;;3.67;;
65567;SDS011;52211;50.154;8.682;2023-07-29T04:58:27;3.90;;;3.60;;
65567;SDS011;52211;50.154;8.682;2023-07-29T05:00:57;4.53;;;4.23;;
65567;SDS011;52211;50.154;8.682;2023-07-29T05:03:28;4.13;;;3.77;;
65567;SDS011;52211;50.154;8.682;2023-07-29T05:06:00;5.10;;;4.70;;
65567;SDS011;52211;50.154;8.682;2023-07-29T05:08:32;5.37;;;4.50;;
65567;SDS011;52211;50.154;8.682;2023-07-29T05:11:02;5.13;;;4.80;;
65567;SDS011;52211;50.154;8.682;2023-07-29T05:13:31;4.60;;;4.30;;
65567;SDS011;52211;50.154;8.682;2023-07-29T05:15:58;4.90;;;4.60;;
65567;SDS011;52211;50.154;8.682;2023-07-29T05:18:29;5.03;;;4.63;;
65567;SDS011;52211;50.154;8.682;2023-07-29T05:20:57;4.70;;;4.33;;
65567;SDS011;52211;50.154;8.682;2023-07-29T05:23:24;4.87;;;4.47;;
65567;SDS011;52211;50.154;8.682;2023-07-29T05:25:54;5.37;;;4.20;;
65567;SDS011;52211;50.154;8.682;2023-07-29T05:28:23;5.10;;;4.70;;
65567;SDS011;52211;50.154;8.682;2023-07-29T05:30:52;4.77;;;4.43;;
65567;SDS011;52211;50.154;8.682;2023-07-29T05:33:19;5.50;;;4.50;;
65567;SDS011;52211;50.154;8.682;2023-07-29T05:35:46;4.30;;;4.00;;
65567;SDS011;52211;50.154;8.682;2023-07-29T05:38:14;4.77;;;4.37;;
65567;SDS011;52211;50.154;8.682;2023-07-29T05:40:40;4.23;;;3.90;;
65567;SDS011;52211;50.154;8.682;2023-07-29T05:43:10;4.20;;;3.90;;
65567;SDS011;52211;50.154;8.682;2023-07-29T05:45:37;4.57;;;4.27;;
65567;SDS011;52211;50.154;8.682;2023-07-29T05:48:06;4.60;;;4.30;;
65567;SDS011;52211;50.154;8.682;2023-07-29T05:50:33;4.67;;;4.37;;
65567;SDS011;52211;50.154;8.682;2023-07-29T05:53:02;4.77;;;4.07;;
65567;SDS011;52211;50.154;8.682;2023-07-29T05:55:29;4.47;;;4.00;;
65567;SDS011;52211;50.154;8.682;2023-07-29T05:57:59;3.83;;;3.40;;
65567;SDS011;52211;50.154;8.682;2023-07-29T06:00:28;4.80;;;4.40;;
65567;SDS011;52211;50.154;8.682;2023-07-29T06:02:59;4.63;;;4.23;;
65567;SDS011;52211;50.154;8.682;2023-07-29T06:05:28;4.50;;;4.20;;
65567;SDS011;52211;50.154;8.682;2023-07-29T06:08:04;4.90;;;4.27;;
65567;SDS011;52211;50.154;8.682;2023-07-29T06:10:31;5.00;;;4.60;;
65567;SDS011;52211;50.154;8.682;2023-07-29T06:13:00;4.20;;;3.90;;
65567;SDS011;52211;50.154;8.682;2023-07-29T06:15:29;3.87;;;3.57;;
65567;SDS011;52211;50.154;8.682;2023-07-29T06:18:01;4.93;;;4.10;;
65567;SDS011;52211;50.154;8.682;2023-07-29T06:20:30;4.87;;;4.47;;
65567;SDS011;52211;50.154;8.682;2023-07-29T06:23:02;4.60;;;4.20;;
65567;SDS011;52211;50.154;8.682;2023-07-29T06:25:30;4.47;;;4.07;;
65567;SDS011;52211;50.154;8.682;2023-07-29T06:27:59;4.90;;;4.50;;
65567;SDS011;52211;50.154;8.682;2023-07-29T06:30:26;5.47;;;4.90;;
65567;SDS011;52211;50.154;8.682;2023-07-29T06:32:53;5.07;;;4.67;;
65567;SDS011;52211;50.154;8.682;2023-07-29T06:35:23;5.97;;;5.23;;
65567;SDS011;52211;50.154;8.682;2023-07-29T06:37:52;5.10;;;4.60;;
65567;SDS011;52211;50.154;8.682;2023-07-29T06:40:24;5.70;;;5.20;;
65567;SDS011;52211;50.154;8.682;2023-07-29T06:42:54;4.60;;;4.30;;
65567;SDS011;52211;50.154;8.682;2023-07-29T06:45:23;5.50;;;4.53;;
65567;SDS011;52211;50.154;8.682;2023-07-29T06:47:53;4.10;;;3.83;;
65567;SDS011;52211;50.154;8.682;2023-07-29T06:50:22;4.63;;;4.23;;
65567;SDS011;52211;50.154;8.682;2023-07-29T06:52:51;4.03;;;3.73;;
65567;SDS011;52211;50.154;8.682;2023-07-29T06:55:18;3.87;;;3.50;;
65567;SDS011;52211;50.154;8.682;2023-07-29T06:57:47;3.67;;;3.30;;
65567;SDS011;52211;50.154;8.682;2023-07-29T07:00:14;3.03;;;2.83;;
65567;SDS011;52211;50.154;8.682;2023-07-29T07:02:43;2.80;;;2.60;;
65567;SDS011;52211;50.154;8.682;2023-07-29T07:05:10;2.97;;;2.30;;
65567;SDS011;52211;50.154;8.682;2023-07-29T07:07:37;2.80;;;2.60;;
65567;SDS011;52211;50.154;8.682;2023-07-29T07:10:04;2.80;;;2.60;;
65567;SDS011;52211;50.154;8.682;2023-07-29T07:12:32;4.23;;;2.90;;
65567;SDS011;52211;50.154;8.682;2023-07-29T07:14:59;2.90;;;2.70;;
65567;SDS011;52211;50.154;8.682;2023-07-29T07:17:26;2.83;;;2.63;;
65567;SDS011;52211;50.154;8.682;2023-07-29T07:19:56;4.63;;;2.80;;
65567;SDS011;52211;50.154;8.682;2023-07-29T07:22:25;2.90;;;2.70;;
65567;SDS011;52211;50.154;8.682;2023-07-29T07:24:52;4.03;;;3.13;;
65567;SDS011;52211;50.154;8.682;2023-07-29T07:27:23;3.53;;;3.33;;
65567;SDS011;52211;50.154;8.682;2023-07-29T07:29:50;4.30;;;3.90;;
65567;SDS011;52211;50.154;8.682;2023-07-29T07:32:19;3.40;;;3.10;;
65567;SDS011;52211;50.154;8.682;2023-07-29T07:34:51;3.73;;;3.47;;
65567;SDS011;52211;50.154;8.682;2023-07-29T07:37:17;3.83;;;3.53;;
65567;SDS011;52211;50.154;8.682;2023-07-29T07:39:49;3.97;;;3.70;;
65567;SDS011;52211;50.154;8.682;2023-07-29T07:42:21;4.00;;;3.70;;
65567;SDS011;52211;50.154;8.682;2023-07-29T07:44:48;4.47;;;4.13;;
65567;SDS011;52211;50.154;8.682;2023-07-29T07:47:15;4.23;;;3.93;;
65567;SDS011;52211;50.154;8.682;2023-07-29T07:49:46;4.43;;;4.03;;
65567;SDS011;52211;50.154;8.682;2023-07-29T07:52:15;4.13;;;3.83;;
65567;SDS011;52211;50.154;8.682;2023-07-29T07:54:42;5.00;;;4.57;;
65567;SDS011;52211;50.154;8.682;2023-07-29T07:57:11;4.00;;;3.60;;
65567;SDS011;52211;50.154;8.682;2023-07-29T07:59:40;4.73;;;4.33;;
65567;SDS011;52211;50.154;8.682;2023-07-29T08:02:07;4.90;;;4.50;;
65567;SDS011;52211;50.154;8.682;2023-07-29T08:04:36;4.53;;;4.13;;
65567;SDS011;52211;50.154;8.682;2023-07-29T08:07:05;5.57;;;5.10;;
65567;SDS011;52211;50.154;8.682;2023-07-29T08:09:35;4.50;;;4.20;;
65567;SDS011;52211;50.154;8.682;2023-07-29T08:12:01;4.13;;;3.83;;
65567;SDS011;52211;50.154;8.682;2023-07-29T08:14:29;4.50;;;4.20;;
65567;SDS011;52211;50.154;8.682;2023-07-29T08:16:56;4.00;;;3.70;;
65567;SDS011;52211;50.154;8.682;2023-07-29T08:19:22;3.67;;;3.30;;
65567;SDS011;52211;50.154;8.682;2023-07-29T08:21:52;3.23;;;3.03;;
65567;SDS011;52211;50.154;8.682;2023-07-29T08:24:19;3.87;;;3.67;;
65567;SDS011;52211;50.154;8.682;2023-07-29T08:26:46;3.77;;;3.57;;
65567;SDS011;52211;50.154;8.682;2023-07-29T08:29:15;3.97;;;3.70;;
65567;SDS011;52211;50.154;8.682;2023-07-29T08:31:42;3.57;;;3.33;;
65567;SDS011;52211;50.154;8.682;2023-07-29T08:34:13;3.20;;;3.00;;
65567;SDS011;52211;50.154;8.682;2023-07-29T08:36:45;3.13;;;2.93;;
65567;SDS011;52211;50.154;8.682;2023-07-29T08:39:14;3.00;;;2.80;;
65567;SDS011;52211;50.154;8.682;2023-07-29T08:41:51;3.27;;;3.00;;
65567;SDS011;52211;50.154;8.682;2023-07-29T08:44:26;3.87;;;2.90;;
65567;SDS011;52211;50.154;8.682;2023-07-29T08:46:57;2.53;;;2.07;;
65567;SDS011;52211;50.154;8.682;2023-07-29T08:49:34;4.20;;;2.30;;
65567;SDS011;52211;50.154;8.682;2023-07-29T08:52:07;2.50;;;2.30;;
65567;SDS011;52211;50.154;8.682;2023-07-29T08:54:37;2.43;;;2.23;;
65567;SDS011;52211;50.154;8.682;2023-07-29T08:57:04;2.30;;;2.10;;
65567;SDS011;52211;50.154;8.682;2023-07-29T08:59:33;2.63;;;2.40;;
65567;SDS011;52211;50.154;8.682;2023-07-29T09:02:02;2.23;;;2.00;;
65567;SDS011;52211;50.154;8.682;2023-07-29T09:04:29;2.50;;;2.30;;
65567;SDS011;52211;50.154;8.682;2023-07-29T09:07:03;2.30;;;2.20;;
65567;SDS011;52211;50.154;8.682;2023-07-29T09:09:35;2.50;;;2.40;;
65567;SDS011;52211;50.154;8.682;2023-07-29T09:12:03;2.23;;;2.00;;
65567;SDS011;52211;50.154;8.682;2023-07-29T09:14:33;1.57;;;1.50;;
65567;SDS011;52211;50.154;8.682;2023-07-29T09:17:02;1.80;;;1.70;;
65567;SDS011;52211;50.154;8.682;2023-07-29T09:19:33;1.30;;;1.30;;
65567;SDS011;52211;50.154;8.682;2023-07-29T09:22:03;1.60;;;1.50;;
65567;SDS011;52211;50.154;8.682;2023-07-29T09:24:35;2.00;;;1.90;;
65567;SDS011;52211;50.154;8.682;2023-07-29T09:27:02;1.57;;;1.40;;
65567;SDS011;52211;50.154;8.682;2023-07-29T09:29:31;1.73;;;1.63;;
65567;SDS011;52211;50.154;8.682;2023-07-29T09:32:20;1.60;;;1.50;;
65567;SDS011;52211;50.154;8.682;2023-07-29T09:34:48;1.77;;;1.63;;
65567;SDS011;52211;50.154;8.682;2023-07-29T09:37:18;1.83;;;1.13;;
65567;SDS011;52211;50.154;8.682;2023-07-29T09:39:50;1.30;;;1.20;;
65567;SDS011;52211;50.154;8.682;2023-07-29T09:42:26;2.10;;;1.27;;
65567;SDS011;52211;50.154;8.682;2023-07-29T09:44:56;0.90;;;0.90;;
65567;SDS011;52211;50.154;8.682;2023-07-29T09:47:25;1.70;;;0.80;;
65567;SDS011;52211;50.154;8.682;2023-07-29T09:49:58;1.30;;;1.20;;
65567;SDS011;52211;50.154;8.682;2023-07-29T09:52:26;1.00;;;1.00;;
65567;SDS011;52211;50.154;8.682;2023-07-29T09:54:54;0.77;;;0.77;;
65567;SDS011;52211;50.154;8.682;2023-07-29T09:57:23;1.10;;;1.10;;
65567;SDS011;52211;50.154;8.682;2023-07-29T09:59:54;1.90;;;1.00;;
65567;SDS011;52211;50.154;8.682;2023-07-29T10:02:22;0.83;;;0.83;;
65567;SDS011;52211;50.154;8.682;2023-07-29T10:04:58;1.30;;;1.20;;
65567;SDS011;52211;50.154;8.682;2023-07-29T10:07:30;0.87;;;0.87;;
65567;SDS011;52211;50.154;8.682;2023-07-29T10:09:57;1.03;;;1.00;;
65567;SDS011;52211;50.154;8.682;2023-07-29T10:12:29;0.90;;;0.90;;
65567;SDS011;52211;50.154;8.682;2023-07-29T10:15:03;1.17;;;1.07;;
65567;SDS011;52211;50.154;8.682;2023-07-29T10:17:36;1.00;;;1.00;;
65567;SDS011;52211;50.154;8.682;2023-07-29T10:20:09;1.43;;;0.90;;
65567;SDS011;52211;50.154;8.682;2023-07-29T10:22:41;1.60;;;1.00;;
65567;SDS011;52211;50.154;8.682;2023-07-29T10:25:19;1.10;;;1.00;;
65567;SDS011;52211;50.154;8.682;2023-07-29T10:27:51;0.97;;;0.97;;
65567;SDS011;52211;50.154;8.682;2023-07-29T10:30:24;1.20;;;1.10;;
65567;SDS011;52211;50.154;8.682;2023-07-29T10:32:54;1.40;;;1.00;;
65567;SDS011;52211;50.154;8.682;2023-07-29T10:35:29;1.20;;;1.10;;
65567;SDS011;52211;50.154;8.682;2023-07-29T10:37:56;1.10;;;1.00;;
65567;SDS011;52211;50.154;8.682;2023-07-29T10:40:23;1.20;;;1.03;;
65567;SDS011;52211;50.154;8.682;2023-07-29T10:43:06;1.33;;;1.23;;
65567;SDS011;52211;50.154;8.682;2023-07-29T10:45:42;0.90;;;0.90;;
65567;SDS011;52211;50.154;8.682;2023-07-29T10:48:12;2.27;;;1.30;;
65567;SDS011;52211;50.154;8.682;2023-07-29T10:54:09;1.10;;;1.10;;
65567;SDS011;52211;50.154;8.682;2023-07-29T10:56:43;1.53;;;1.00;;
65567;SDS011;52211;50.154;8.682;2023-07-29T11:01:50;1.07;;;1.03;;
65567;SDS011;52211;50.154;8.682;2023-07-29T11:04:27;2.00;;;1.20;;
65567;SDS011;52211;50.154;8.682;2023-07-29T11:09:39;1.17;;;1.10;;
65567;SDS011;52211;50.154;8.682;2023-07-29T11:20:12;1.10;;;1.07;;
65567;SDS011;52211;50.154;8.682;2023-07-29T11:22:41;0.93;;;0.93;;
65567;SDS011;52211;50.154;8.682;2023-07-29T11:25:09;0.80;;;0.80;;
65567;SDS011;52211;50.154;8.682;2023-07-29T11:27:41;1.40;;;1.30;;
65567;SDS011;52211;50.154;8.682;2023-07-29T11:30:11;1.30;;;1.20;;
65567;SDS011;52211;50.154;8.682;2023-07-29T11:32:45;1.10;;;0.90;;
65567;SDS011;52211;50.154;8.682;2023-07-29T11:35:14;1.00;;;1.00;;
65567;SDS011;52211;50.154;8.682;2023-07-29T11:37:48;1.10;;;1.10;;
65567;SDS011;52211;50.154;8.682;2023-07-29T11:40:21;0.97;;;0.97;;
65567;SDS011;52211;50.154;8.682;2023-07-29T11:42:51;1.20;;;1.10;;
65567;SDS011;52211;50.154;8.682;2023-07-29T11:45:20;0.93;;;0.90;;
65567;SDS011;52211;50.154;8.682;2023-07-29T11:48:03;1.00;;;0.90;;
65567;SDS011;52211;50.154;8.682;2023-07-29T11:50:32;1.20;;;1.10;;
65567;SDS011;52211;50.154;8.682;2023-07-29T11:53:02;1.13;;;1.13;;
65567;SDS011;52211;50.154;8.682;2023-07-29T11:55:31;1.07;;;1.07;;
65567;SDS011;52211;50.154;8.682;2023-07-29T11:58:00;1.00;;;1.00;;
65567;SDS011;52211;50.154;8.682;2023-07-29T12:00:33;1.00;;;1.00;;
65567;SDS011;52211;50.154;8.682;2023-07-29T12:03:05;1.43;;;1.33;;
65567;SDS011;52211;50.154;8.682;2023-07-29T12:05:35;1.40;;;1.30;;
65567;SDS011;52211;50.154;8.682;2023-07-29T12:08:04;1.43;;;1.07;;
65567;SDS011;52211;50.154;8.682;2023-07-29T12:10:31;2.23;;;1.40;;
65567;SDS011;52211;50.154;8.682;2023-07-29T12:13:01;1.07;;;1.07;;
65567;SDS011;52211;50.154;8.682;2023-07-29T12:15:29;1.20;;;1.10;;
65567;SDS011;52211;50.154;8.682;2023-07-29T12:17:59;1.30;;;1.20;;
65567;SDS011;52211;50.154;8.682;2023-07-29T12:20:29;1.23;;;1.13;;
65567;SDS011;52211;50.154;8.682;2023-07-29T12:22:59;1.00;;;1.00;;
65567;SDS011;52211;50.154;8.682;2023-07-29T12:25:36;1.70;;;1.10;;
65567;SDS011;52211;50.154;8.682;2023-07-29T12:28:07;2.07;;;1.20;;
65567;SDS011;52211;50.154;8.682;2023-07-29T12:30:42;1.40;;;1.30;;
65567;SDS011;52211;50.154;8.682;2023-07-29T12:33:28;1.27;;;1.17;;
65567;SDS011;52211;50.154;8.682;2023-07-29T12:36:00;1.10;;;1.00;;
65567;SDS011;52211;50.154;8.682;2023-07-29T12:38:27;1.37;;;1.27;;
65567;SDS011;52211;50.154;8.682;2023-07-29T12:40:55;1.13;;;1.00;;
65567;SDS011;52211;50.154;8.682;2023-07-29T12:43:25;1.37;;;1.13;;
65567;SDS011;52211;50.154;8.682;2023-07-29T12:45:57;1.47;;;1.00;;
65567;SDS011;52211;50.154;8.682;2023-07-29T12:48:24;2.27;;;1.30;;
65567;SDS011;52211;50.154;8.682;2023-07-29T12:50:53;1.17;;;1.00;;
65567;SDS011;52211;50.154;8.682;2023-07-29T12:53:22;1.67;;;1.50;;
65567;SDS011;52211;50.154;8.682;2023-07-29T12:55:49;1.33;;;1.30;;
65567;SDS011;52211;50.154;8.682;2023-07-29T12:58:20;1.10;;;1.10;;
65567;SDS011;52211;50.154;8.682;2023-07-29T13:00:47;1.40;;;1.10;;
65567;SDS011;52211;50.154;8.682;2023-07-29T13:03:16;1.27;;;1.17;;
65567;SDS011;52211;50.154;8.682;2023-07-29T13:05:43;2.00;;;1.40;;
65567;SDS011;52211;50.154;8.682;2023-07-29T13:08:12;1.60;;;1.50;;
65567;SDS011;52211;50.154;8.682;2023-07-29T13:10:39;1.30;;;1.20;;
65567;SDS011;52211;50.154;8.682;2023-07-29T13:13:06;1.40;;;1.30;;
65567;SDS011;52211;50.154;8.682;2023-07-29T13:15:35;1.00;;;1.00;;
65567;SDS011;52211;50.154;8.682;2023-07-29T13:18:03;1.10;;;1.10;;
65567;SDS011;52211;50.154;8.682;2023-07-29T13:20:30;1.77;;;1.20;;
65567;SDS011;52211;50.154;8.682;2023-07-29T13:22:57;1.47;;;1.37;;
65567;SDS011;52211;50.154;8.682;2023-07-29T13:25:24;1.20;;;1.10;;
65567;SDS011;52211;50.154;8.682;2023-07-29T13:27:53;1.83;;;1.23;;
65567;SDS011;52211;50.154;8.682;2023-07-29T13:30:22;1.30;;;1.20;;
65567;SDS011;52211;50.154;8.682;2023-07-29T13:32:49;1.43;;;1.33;;
65567;SDS011;52211;50.154;8.682;2023-07-29T13:35:18;0.90;;;0.90;;
65567;SDS011;52211;50.154;8.682;2023-07-29T13:37:45;1.70;;;1.60;;
65567;SDS011;52211;50.154;8.682;2023-07-29T13:40:12;1.20;;;1.17;;
65567;SDS011;52211;50.154;8.682;2023-07-29T13:42:42;1.37;;;1.27;;
65567;SDS011;52211;50.154;8.682;2023-07-29T13:45:11;1.23;;;1.17;;
65567;SDS011;52211;50.154;8.682;2023-07-29T13:47:40;1.10;;;1.10;;
65567;SDS011;52211;50.154;8.682;2023-07-29T13:50:09;1.63;;;1.10;;
65567;SDS011;52211;50.154;8.682;2023-07-29T13:52:39;1.03;;;1.00;;
65567;SDS011;52211;50.154;8.682;2023-07-29T13:55:06;1.97;;;1.00;;
65567;SDS011;52211;50.154;8.682;2023-07-29T13:57:33;1.27;;;1.17;;
65567;SDS011;52211;50.154;8.682;2023-07-29T14:00:02;1.20;;;1.20;;
65567;SDS011;52211;50.154;8.682;2023-07-29T14:02:36;1.30;;;1.20;;
65567;SDS011;52211;50.154;8.682;2023-07-29T14:05:05;1.30;;;1.30;;
65567;SDS011;52211;50.154;8.682;2023-07-29T14:07:33;1.00;;;1.00;;
65567;SDS011;52211;50.154;8.682;2023-07-29T14:10:02;1.30;;;1.20;;
65567;SDS011;52211;50.154;8.682;2023-07-29T14:12:29;1.23;;;1.13;;
65567;SDS011;52211;50.154;8.682;2023-07-29T14:14:56;1.03;;;1.03;;
65567;SDS011;52211;50.154;8.682;2023-07-29T14:17:23;1.20;;;1.10;;
65567;SDS011;52211;50.154;8.682;2023-07-29T14:19:50;0.90;;;0.90;;
65567;SDS011;52211;50.154;8.682;2023-07-29T14:22:17;0.70;;;0.70;;
65567;SDS011;52211;50.154;8.682;2023-07-29T14:24:46;0.90;;;0.90;;
65567;SDS011;52211;50.154;8.682;2023-07-29T14:27:15;1.10;;;1.00;;
65567;SDS011;52211;50.154;8.682;2023-07-29T14:29:45;1.10;;;1.00;;
65567;SDS011;52211;50.154;8.682;2023-07-29T14:32:12;1.70;;;1.00;;
65567;SDS011;52211;50.154;8.682;2023-07-29T14:34:39;1.27;;;1.17;;
65567;SDS011;52211;50.154;8.682;2023-07-29T14:37:08;0.93;;;0.93;;
65567;SDS011;52211;50.154;8.682;2023-07-29T14:39:35;1.23;;;1.10;;
65567;SDS011;52211;50.154;8.682;2023-07-29T14:42:07;1.30;;;1.20;;
65567;SDS011;52211;50.154;8.682;2023-07-29T14:44:34;1.33;;;1.23;;
65567;SDS011;52211;50.154;8.682;2023-07-29T14:47:03;0.90;;;0.90;;
65567;SDS011;52211;50.154;8.682;2023-07-29T14:49:33;1.13;;;1.10;;
65567;SDS011;52211;50.154;8.682;2023-07-29T14:52:00;1.10;;;1.10;;
65567;SDS011;52211;50.154;8.682;2023-07-29T14:54:29;1.00;;;1.00;;
65567;SDS011;52211;50.154;8.682;2023-07-29T14:57:04;1.00;;;1.00;;
65567;SDS011;52211;50.154;8.682;2023-07-29T14:59:37;1.20;;;1.10;;
65567;SDS011;52211;50.154;8.682;2023-07-29T15:02:07;1.50;;;1.10;;
65567;SDS011;52211;50.154;8.682;2023-07-29T15:04:34;1.00;;;1.00;;
65567;SDS011;52211;50.154;8.682;2023-07-29T15:07:03;1.20;;;1.20;;
65567;SDS011;52211;50.154;8.682;2023-07-29T15:09:33;1.43;;;1.33;;
65567;SDS011;52211;50.154;8.682;2023-07-29T15:12:02;1.20;;;1.20;;
65567;SDS011;52211;50.154;8.682;2023-07-29T15:14:30;1.20;;;1.10;;
65567;SDS011;52211;50.154;8.682;2023-07-29T15:16:57;1.17;;;1.03;;
65567;SDS011;52211;50.154;8.682;2023-07-29T15:19:31;1.17;;;1.17;;
65567;SDS011;52211;50.154;8.682;2023-07-29T15:22:00;1.30;;;1.20;;
65567;SDS011;52211;50.154;8.682;2023-07-29T15:24:30;1.50;;;1.40;;
65567;SDS011;52211;50.154;8.682;2023-07-29T15:27:02;1.30;;;1.20;;